sensor_id;sensor_type;location;lat;lon;timestamp;pressure;altitude;pressure_sealevel;temperature;humidity
54910;BME280;63189;51.240;9.964;2023-04-12T00:01:12;97314.69;;;4.76;69.26
54910;BME280;63189;51.240;9.964;2023-04-12T00:03:38;97306.91;;;4.77;68.36
54910;BME280;63189;51.240;9.964;2023-04-12T00:06:03;97311.28;;;4.75;69.37
54910;BME280;63189;51.240;9.964;2023-04-12T00:08:32;97305.34;;;4.70;69.41
54910;BME280;63189;51.240;9.964;2023-04-12T00:11:00;97304.50;;;4.70;69.08
54910;BME280;63189;51.240;9.964;2023-04-12T00:13:26;97311.38;;;4.71;68.10
54910;BME280;63189;51.240;9.964;2023-04-12T00:15:52;97313.13;;;4.67;69.08
54910;BME280;63189;51.240;9.964;2023-04-12T00:18:17;97311.53;;;4.61;68.89
54910;BME280;63189;51.240;9.964;2023-04-12T00:20:42;97307.28;;;4.59;68.72
54910;BME280;63189;51.240;9.964;2023-04-12T00:23:08;97289.16;;;4.60;68.15
54910;BME280;63189;51.240;9.964;2023-04-12T00:25:37;97286.50;;;4.65;68.61
54910;BME280;63189;51.240;9.964;2023-04-12T00:28:03;97283.09;;;4.63;68.21
54910;BME280;63189;51.240;9.964;2023-04-12T00:30:29;97270.19;;;4.63;68.94
54910;BME280;63189;51.240;9.964;2023-04-12T00:32:54;97273.56;;;4.65;67.64
54910;BME280;63189;51.240;9.964;2023-04-12T00:35:20;97262.44;;;4.63;67.90
54910;BME280;63189;51.240;9.964;2023-04-12T00:37:45;97265.75;;;4.68;67.57
54910;BME280;63189;51.240;9.964;2023-04-12T00:40:14;97259.78;;;4.66;68.83
54910;BME280;63189;51.240;9.964;2023-04-12T00:42:43;97243.41;;;4.67;69.39
54910;BME280;63189;51.240;9.964;2023-04-12T00:45:27;97219.59;;;4.53;68.87
54910;BME280;63189;51.240;9.964;2023-04-12T00:47:56;97220.41;;;4.55;68.69
54910;BME280;63189;51.240;9.964;2023-04-12T00:50:33;97204.97;;;4.52;67.72
54910;BME280;63189;51.240;9.964;2023-04-12T00:53:06;97197.19;;;4.55;67.53
54910;BME280;63189;51.240;9.964;2023-04-12T00:56:03;97218.53;;;4.63;69.64
54910;BME280;63189;51.240;9.964;2023-04-12T01:01:26;97186.09;;;4.50;68.97
54910;BME280;63189;51.240;9.964;2023-04-12T01:09:55;97204.84;;;4.58;68.68
54910;BME280;63189;51.240;9.964;2023-04-12T01:15:49;97162.09;;;4.45;69.08
54910;BME280;63189;51.240;9.964;2023-04-12T01:18:38;97176.44;;;4.59;68.74
54910;BME280;63189;51.240;9.964;2023-04-12T01:21:08;97179.75;;;4.66;67.81
54910;BME280;63189;51.240;9.964;2023-04-12T01:26:43;97150.00;;;4.47;69.39
54910;BME280;63189;51.240;9.964;2023-04-12T01:29:40;97173.06;;;4.56;69.63
54910;BME280;63189;51.240;9.964;2023-04-12T01:32:10;97161.13;;;4.50;69.88
54910;BME280;63189;51.240;9.964;2023-04-12T01:34:43;97167.88;;;4.57;68.86
54910;BME280;63189;51.240;9.964;2023-04-12T01:37:20;97144.88;;;4.45;69.56
54910;BME280;63189;51.240;9.964;2023-04-12T01:40:09;97131.94;;;4.48;69.84
54910;BME280;63189;51.240;9.964;2023-04-12T01:42:44;97118.34;;;4.39;69.66
54910;BME280;63189;51.240;9.964;2023-04-12T01:45:18;97108.13;;;4.32;70.00
54910;BME280;63189;51.240;9.964;2023-04-12T01:47:58;97111.53;;;4.34;70.63
54910;BME280;63189;51.240;9.964;2023-04-12T01:53:48;97099.66;;;4.27;71.68
54910;BME280;63189;51.240;9.964;2023-04-12T01:56:21;97112.41;;;4.33;71.32
54910;BME280;63189;51.240;9.964;2023-04-12T01:59:11;97099.66;;;4.27;70.15
54910;BME280;63189;51.240;9.964;2023-04-12T02:02:18;97090.03;;;4.34;71.37
54910;BME280;63189;51.240;9.964;2023-04-12T02:08:05;97084.00;;;4.35;70.10
54910;BME280;63189;51.240;9.964;2023-04-12T02:10:33;97107.13;;;4.41;69.84
54910;BME280;63189;51.240;9.964;2023-04-12T02:13:01;97111.19;;;4.53;69.52
54910;BME280;63189;51.240;9.964;2023-04-12T02:15:28;97087.13;;;4.51;69.26
54910;BME280;63189;51.240;9.964;2023-04-12T02:17:53;97086.13;;;4.56;69.37
54910;BME280;63189;51.240;9.964;2023-04-12T02:20:20;97088.69;;;4.58;69.38
54910;BME280;63189;51.240;9.964;2023-04-12T02:22:45;97073.28;;;4.55;71.34
54910;BME280;63189;51.240;9.964;2023-04-12T02:25:10;97080.19;;;4.53;70.03
54910;BME280;63189;51.240;9.964;2023-04-12T02:27:36;97076.69;;;4.55;69.85
54910;BME280;63189;51.240;9.964;2023-04-12T02:30:02;97075.03;;;4.53;70.23
54910;BME280;63189;51.240;9.964;2023-04-12T02:32:28;97061.25;;;4.54;70.85
54910;BME280;63189;51.240;9.964;2023-04-12T02:34:55;97058.63;;;4.55;70.97
54910;BME280;63189;51.240;9.964;2023-04-12T02:37:24;97046.66;;;4.53;70.65
54910;BME280;63189;51.240;9.964;2023-04-12T02:39:51;97058.59;;;4.57;71.01
54910;BME280;63189;51.240;9.964;2023-04-12T02:42:20;97063.81;;;4.54;71.36
54910;BME280;63189;51.240;9.964;2023-04-12T02:44:46;97054.38;;;4.53;70.52
54910;BME280;63189;51.240;9.964;2023-04-12T02:47:12;97051.00;;;4.51;70.75
54910;BME280;63189;51.240;9.964;2023-04-12T02:49:37;97048.47;;;4.48;70.58
54910;BME280;63189;51.240;9.964;2023-04-12T02:52:02;97029.56;;;4.46;70.29
54910;BME280;63189;51.240;9.964;2023-04-12T02:54:29;97045.03;;;4.49;70.61
54910;BME280;63189;51.240;9.964;2023-04-12T02:56:54;97043.25;;;4.51;70.50
54910;BME280;63189;51.240;9.964;2023-04-12T02:59:19;97038.97;;;4.50;70.70
54910;BME280;63189;51.240;9.964;2023-04-12T03:01:45;97037.25;;;4.50;70.80
54910;BME280;63189;51.240;9.964;2023-04-12T03:04:10;97032.22;;;4.43;71.08
54910;BME280;63189;51.240;9.964;2023-04-12T03:06:36;97037.31;;;4.46;70.99
54910;BME280;63189;51.240;9.964;2023-04-12T03:09:01;97039.91;;;4.46;70.42
54910;BME280;63189;51.240;9.964;2023-04-12T03:11:26;97025.25;;;4.46;70.58
54910;BME280;63189;51.240;9.964;2023-04-12T03:13:52;97009.03;;;4.41;70.57
54910;BME280;63189;51.240;9.964;2023-04-12T03:16:23;97002.84;;;4.50;70.25
54910;BME280;63189;51.240;9.964;2023-04-12T03:18:49;97014.84;;;4.51;69.92
54910;BME280;63189;51.240;9.964;2023-04-12T03:21:15;97008.91;;;4.47;70.40
54910;BME280;63189;51.240;9.964;2023-04-12T03:23:41;97007.19;;;4.46;71.25
54910;BME280;63189;51.240;9.964;2023-04-12T03:26:07;97002.06;;;4.45;70.50
54910;BME280;63189;51.240;9.964;2023-04-12T03:28:33;97004.53;;;4.51;70.15
54910;BME280;63189;51.240;9.964;2023-04-12T03:30:59;96993.28;;;4.53;70.27
54910;BME280;63189;51.240;9.964;2023-04-12T03:33:26;96993.25;;;4.55;69.71
54910;BME280;63189;51.240;9.964;2023-04-12T03:35:51;96992.44;;;4.53;69.92
54910;BME280;63189;51.240;9.964;2023-04-12T03:38:16;96990.75;;;4.52;70.03
54910;BME280;63189;51.240;9.964;2023-04-12T03:40:42;96992.38;;;4.56;70.65
54910;BME280;63189;51.240;9.964;2023-04-12T03:43:07;96980.25;;;4.58;70.69
54910;BME280;63189;51.240;9.964;2023-04-12T03:45:32;96978.56;;;4.57;71.10
54910;BME280;63189;51.240;9.964;2023-04-12T03:47:58;96980.25;;;4.58;71.99
54910;BME280;63189;51.240;9.964;2023-04-12T03:50:23;96979.41;;;4.59;71.40
54910;BME280;63189;51.240;9.964;2023-04-12T03:52:48;96981.09;;;4.60;71.25
54910;BME280;63189;51.240;9.964;2023-04-12T03:55:14;96987.97;;;4.61;71.59
54910;BME280;63189;51.240;9.964;2023-04-12T03:57:42;96982.81;;;4.61;71.00
54910;BME280;63189;51.240;9.964;2023-04-12T04:00:08;96982.75;;;4.62;71.04
54910;BME280;63189;51.240;9.964;2023-04-12T04:02:34;96971.53;;;4.63;70.68
54910;BME280;63189;51.240;9.964;2023-04-12T04:04:59;96967.09;;;4.69;70.52
54910;BME280;63189;51.240;9.964;2023-04-12T04:07:26;96968.84;;;4.70;70.66
54910;BME280;63189;51.240;9.964;2023-04-12T04:09:53;96958.50;;;4.70;70.17
54910;BME280;63189;51.240;9.964;2023-04-12T04:12:18;96954.19;;;4.69;71.24
54910;BME280;63189;51.240;9.964;2023-04-12T04:14:44;96950.78;;;4.68;70.53
54910;BME280;63189;51.240;9.964;2023-04-12T04:17:09;96943.03;;;4.70;71.08
54910;BME280;63189;51.240;9.964;2023-04-12T04:19:35;96949.88;;;4.71;72.50
54910;BME280;63189;51.240;9.964;2023-04-12T04:22:00;96951.78;;;4.62;71.99
54910;BME280;63189;51.240;9.964;2023-04-12T04:24:28;96958.56;;;4.67;71.36
54910;BME280;63189;51.240;9.964;2023-04-12T04:26:55;96950.78;;;4.68;71.11
54910;BME280;63189;51.240;9.964;2023-04-12T04:29:21;96953.41;;;4.67;72.33
54910;BME280;63189;51.240;9.964;2023-04-12T04:31:47;96945.69;;;4.65;72.18
54910;BME280;63189;51.240;9.964;2023-04-12T04:34:13;96940.53;;;4.65;73.06
54910;BME280;63189;51.240;9.964;2023-04-12T04:36:40;96937.06;;;4.66;73.87
54910;BME280;63189;51.240;9.964;2023-04-12T04:39:06;96923.34;;;4.64;74.34
54910;BME280;63189;51.240;9.964;2023-04-12T04:41:32;96922.38;;;4.68;74.63
54910;BME280;63189;51.240;9.964;2023-04-12T04:44:07;96912.13;;;4.65;75.51
54910;BME280;63189;51.240;9.964;2023-04-12T04:46:37;96898.38;;;4.64;75.79
54910;BME280;63189;51.240;9.964;2023-04-12T04:49:04;96904.31;;;4.68;76.49
54910;BME280;63189;51.240;9.964;2023-04-12T04:51:29;96899.13;;;4.70;75.63
54910;BME280;63189;51.240;9.964;2023-04-12T04:53:55;96890.59;;;4.66;76.67
54910;BME280;63189;51.240;9.964;2023-04-12T04:56:20;96897.53;;;4.64;78.35
54910;BME280;63189;51.240;9.964;2023-04-12T04:58:47;96890.63;;;4.64;78.67
54910;BME280;63189;51.240;9.964;2023-04-12T05:01:13;96882.00;;;4.66;79.13
54910;BME280;63189;51.240;9.964;2023-04-12T05:03:41;96865.81;;;4.59;79.35
54910;BME280;63189;51.240;9.964;2023-04-12T05:06:07;96876.03;;;4.63;80.09
54910;BME280;63189;51.240;9.964;2023-04-12T05:08:32;96875.22;;;4.61;80.05
54910;BME280;63189;51.240;9.964;2023-04-12T05:10:58;96870.00;;;4.63;79.77
54910;BME280;63189;51.240;9.964;2023-04-12T05:13:23;96876.78;;;4.67;80.11
54910;BME280;63189;51.240;9.964;2023-04-12T05:15:49;96878.34;;;4.74;79.94
54910;BME280;63189;51.240;9.964;2023-04-12T05:18:15;96887.78;;;4.75;81.04
54910;BME280;63189;51.240;9.964;2023-04-12T05:20:41;96875.00;;;4.71;81.82
54910;BME280;63189;51.240;9.964;2023-04-12T05:23:07;96868.03;;;4.74;81.83
54910;BME280;63189;51.240;9.964;2023-04-12T05:25:32;96866.31;;;4.73;83.06
54910;BME280;63189;51.240;9.964;2023-04-12T05:27:59;96855.91;;;4.76;81.79
54910;BME280;63189;51.240;9.964;2023-04-12T05:30:24;96852.44;;;4.77;83.31
54910;BME280;63189;51.240;9.964;2023-04-12T05:32:50;96850.66;;;4.79;83.24
54910;BME280;63189;51.240;9.964;2023-04-12T05:35:15;96834.38;;;4.77;83.38
54910;BME280;63189;51.240;9.964;2023-04-12T05:37:41;96830.00;;;4.79;84.32
54910;BME280;63189;51.240;9.964;2023-04-12T05:40:06;96804.22;;;4.78;83.33
54910;BME280;63189;51.240;9.964;2023-04-12T05:42:34;96812.75;;;4.81;83.73
54910;BME280;63189;51.240;9.964;2023-04-12T05:45:01;96813.72;;;4.77;84.71
54910;BME280;63189;51.240;9.964;2023-04-12T05:47:26;96805.06;;;4.78;84.32
54910;BME280;63189;51.240;9.964;2023-04-12T05:49:52;96797.19;;;4.84;85.10
54910;BME280;63189;51.240;9.964;2023-04-12T05:52:18;96790.13;;;4.91;86.46
54910;BME280;63189;51.240;9.964;2023-04-12T05:54:43;96789.28;;;4.89;85.22
54910;BME280;63189;51.240;9.964;2023-04-12T05:57:08;96787.44;;;4.94;86.31
54910;BME280;63189;51.240;9.964;2023-04-12T05:59:33;96791.47;;;5.04;85.42
54910;BME280;63189;51.240;9.964;2023-04-12T06:01:59;96781.78;;;5.12;86.05
54910;BME280;63189;51.240;9.964;2023-04-12T06:04:25;96770.38;;;5.19;85.10
54910;BME280;63189;51.240;9.964;2023-04-12T06:06:51;96778.84;;;5.25;86.24
54910;BME280;63189;51.240;9.964;2023-04-12T06:09:16;96764.28;;;5.22;85.17
54910;BME280;63189;51.240;9.964;2023-04-12T06:11:42;96757.13;;;5.32;84.59
54910;BME280;63189;51.240;9.964;2023-04-12T06:14:07;96754.41;;;5.36;84.85
54910;BME280;63189;51.240;9.964;2023-04-12T06:16:32;96757.78;;;5.38;84.49
54910;BME280;63189;51.240;9.964;2023-04-12T06:18:58;96748.44;;;5.34;84.75
54910;BME280;63189;51.240;9.964;2023-04-12T06:21:23;96745.66;;;5.40;85.33
54910;BME280;63189;51.240;9.964;2023-04-12T06:23:49;96741.25;;;5.44;85.04
54910;BME280;63189;51.240;9.964;2023-04-12T06:26:14;96738.72;;;5.42;86.88
54910;BME280;63189;51.240;9.964;2023-04-12T06:28:40;96741.16;;;5.47;87.04
54910;BME280;63189;51.240;9.964;2023-04-12T06:31:05;96729.03;;;5.49;86.54
54910;BME280;63189;51.240;9.964;2023-04-12T06:33:31;96716.16;;;5.47;86.89
54910;BME280;63189;51.240;9.964;2023-04-12T06:35:56;96718.56;;;5.54;86.52
54910;BME280;63189;51.240;9.964;2023-04-12T06:38:22;96701.31;;;5.54;87.48
54910;BME280;63189;51.240;9.964;2023-04-12T06:40:47;96712.13;;;5.67;87.26
54910;BME280;63189;51.240;9.964;2023-04-12T06:43:15;96699.97;;;5.69;87.59
54910;BME280;63189;51.240;9.964;2023-04-12T06:45:43;96691.31;;;5.70;89.19
54910;BME280;63189;51.240;9.964;2023-04-12T06:48:08;96692.94;;;5.74;88.21
54910;BME280;63189;51.240;9.964;2023-04-12T06:50:34;96688.41;;;5.80;89.30
54910;BME280;63189;51.240;9.964;2023-04-12T06:52:59;96680.03;;;5.72;88.81
54910;BME280;63189;51.240;9.964;2023-04-12T06:55:24;96685.03;;;5.78;89.54
54910;BME280;63189;51.240;9.964;2023-04-12T06:57:53;96674.69;;;5.78;88.89
54910;BME280;63189;51.240;9.964;2023-04-12T07:00:18;96655.00;;;5.73;88.07
54910;BME280;63189;51.240;9.964;2023-04-12T07:02:43;96670.16;;;5.85;89.23
54910;BME280;63189;51.240;9.964;2023-04-12T07:05:09;96672.75;;;5.85;89.80
54910;BME280;63189;51.240;9.964;2023-04-12T07:07:34;96664.81;;;5.91;87.93
54910;BME280;63189;51.240;9.964;2023-04-12T07:10:00;96650.78;;;5.98;89.10
54910;BME280;63189;51.240;9.964;2023-04-12T07:12:27;96654.03;;;6.03;88.52
54910;BME280;63189;51.240;9.964;2023-04-12T07:14:52;96654.94;;;6.02;87.89
54910;BME280;63189;51.240;9.964;2023-04-12T07:17:18;96646.22;;;6.06;87.28
54910;BME280;63189;51.240;9.964;2023-04-12T07:19:45;96636.06;;;6.00;87.95
54910;BME280;63189;51.240;9.964;2023-04-12T07:22:10;96639.00;;;6.15;87.78
54910;BME280;63189;51.240;9.964;2023-04-12T07:24:36;96636.34;;;6.18;88.65
54910;BME280;63189;51.240;9.964;2023-04-12T07:27:01;96631.88;;;6.21;88.31
54910;BME280;63189;51.240;9.964;2023-04-12T07:29:26;96632.63;;;6.25;87.53
54910;BME280;63189;51.240;9.964;2023-04-12T07:31:52;96625.44;;;6.33;87.69
54910;BME280;63189;51.240;9.964;2023-04-12T07:34:17;96613.63;;;6.26;87.52
54910;BME280;63189;51.240;9.964;2023-04-12T07:36:42;96616.00;;;6.32;86.81
54910;BME280;63189;51.240;9.964;2023-04-12T07:39:09;96610.69;;;6.35;87.18
54910;BME280;63189;51.240;9.964;2023-04-12T07:41:37;96602.06;;;6.36;86.75
54910;BME280;63189;51.240;9.964;2023-04-12T07:44:03;96607.91;;;6.41;87.75
54910;BME280;63189;51.240;9.964;2023-04-12T07:46:29;96593.22;;;6.42;87.68
54910;BME280;63189;51.240;9.964;2023-04-12T07:48:54;96584.78;;;6.36;88.69
54910;BME280;63189;51.240;9.964;2023-04-12T07:51:20;96595.91;;;6.39;87.62
54910;BME280;63189;51.240;9.964;2023-04-12T07:53:45;96593.28;;;6.40;88.33
54910;BME280;63189;51.240;9.964;2023-04-12T07:56:13;96590.56;;;6.43;89.09
54910;BME280;63189;51.240;9.964;2023-04-12T07:58:38;96581.91;;;6.44;88.00
54910;BME280;63189;51.240;9.964;2023-04-12T08:01:03;96584.28;;;6.50;89.62
54910;BME280;63189;51.240;9.964;2023-04-12T08:03:29;96574.81;;;6.49;89.74
54910;BME280;63189;51.240;9.964;2023-04-12T08:05:55;96572.16;;;6.51;89.95
54910;BME280;63189;51.240;9.964;2023-04-12T08:08:20;96570.44;;;6.51;89.86
54910;BME280;63189;51.240;9.964;2023-04-12T08:10:47;96568.50;;;6.56;89.37
54910;BME280;63189;51.240;9.964;2023-04-12T08:13:13;96568.50;;;6.56;91.16
54910;BME280;63189;51.240;9.964;2023-04-12T08:15:38;96554.78;;;6.54;92.94
54910;BME280;63189;51.240;9.964;2023-04-12T08:18:04;96559.03;;;6.55;91.64
54910;BME280;63189;51.240;9.964;2023-04-12T08:20:29;96552.19;;;6.54;94.37
54910;BME280;63189;51.240;9.964;2023-04-12T08:22:55;96552.97;;;6.56;95.49
54910;BME280;63189;51.240;9.964;2023-04-12T08:25:21;96548.81;;;6.52;95.69
54910;BME280;63189;51.240;9.964;2023-04-12T08:27:48;96542.84;;;6.50;97.18
54910;BME280;63189;51.240;9.964;2023-04-12T08:30:13;96546.34;;;6.49;99.29
54910;BME280;63189;51.240;9.964;2023-04-12T08:32:38;96543.75;;;6.49;98.55
54910;BME280;63189;51.240;9.964;2023-04-12T08:35:04;96547.34;;;6.45;100.00
54910;BME280;63189;51.240;9.964;2023-04-12T08:37:30;96546.41;;;6.48;100.00
54910;BME280;63189;51.240;9.964;2023-04-12T08:40:02;96531.81;;;6.45;100.00
54910;BME280;63189;51.240;9.964;2023-04-12T08:42:29;96536.03;;;6.48;100.00
54910;BME280;63189;51.240;9.964;2023-04-12T08:44:55;96522.41;;;6.43;100.00
54910;BME280;63189;51.240;9.964;2023-04-12T08:47:21;96523.16;;;6.46;100.00
54910;BME280;63189;51.240;9.964;2023-04-12T08:49:46;96509.31;;;6.47;100.00
54910;BME280;63189;51.240;9.964;2023-04-12T08:52:12;96514.25;;;6.53;100.00
54910;BME280;63189;51.240;9.964;2023-04-12T08:54:40;96513.47;;;6.51;100.00
54910;BME280;63189;51.240;9.964;2023-04-12T08:57:07;96504.66;;;6.55;100.00
54910;BME280;63189;51.240;9.964;2023-04-12T08:59:36;96506.31;;;6.58;100.00
54910;BME280;63189;51.240;9.964;2023-04-12T09:02:02;96499.50;;;6.55;100.00
54910;BME280;63189;51.240;9.964;2023-04-12T09:04:28;96495.00;;;6.60;100.00
54910;BME280;63189;51.240;9.964;2023-04-12T09:06:56;96486.50;;;6.57;100.00
54910;BME280;63189;51.240;9.964;2023-04-12T09:09:53;96488.97;;;6.60;100.00
54910;BME280;63189;51.240;9.964;2023-04-12T09:12:19;96486.38;;;6.60;100.00
54910;BME280;63189;51.240;9.964;2023-04-12T09:14:48;96470.91;;;6.58;100.00
54910;BME280;63189;51.240;9.964;2023-04-12T09:17:24;96463.78;;;6.63;100.00
54910;BME280;63189;51.240;9.964;2023-04-12T09:19:50;96457.41;;;6.72;100.00
54910;BME280;63189;51.240;9.964;2023-04-12T09:22:16;96453.00;;;6.74;100.00
54910;BME280;63189;51.240;9.964;2023-04-12T09:24:49;96444.41;;;6.74;100.00
54910;BME280;63189;51.240;9.964;2023-04-12T09:27:17;96442.84;;;6.70;100.00
54910;BME280;63189;51.240;9.964;2023-04-12T09:29:45;96436.88;;;6.68;100.00
54910;BME280;63189;51.240;9.964;2023-04-12T09:32:15;96439.22;;;6.74;100.00
54910;BME280;63189;51.240;9.964;2023-04-12T09:34:54;96425.72;;;6.65;100.00
54910;BME280;63189;51.240;9.964;2023-04-12T09:37:21;96411.44;;;6.55;100.00
54910;BME280;63189;51.240;9.964;2023-04-12T09:39:46;96421.88;;;6.54;100.00
54910;BME280;63189;51.240;9.964;2023-04-12T09:42:12;96414.88;;;6.56;100.00
54910;BME280;63189;51.240;9.964;2023-04-12T09:44:39;96411.28;;;6.60;100.00
54910;BME280;63189;51.240;9.964;2023-04-12T09:47:05;96413.13;;;6.56;100.00
54910;BME280;63189;51.240;9.964;2023-04-12T09:49:38;96416.41;;;6.61;100.00
54910;BME280;63189;51.240;9.964;2023-04-12T09:52:14;96402.41;;;6.65;100.00
54910;BME280;63189;51.240;9.964;2023-04-12T09:54:48;96405.00;;;6.65;100.00
54910;BME280;63189;51.240;9.964;2023-04-12T09:57:19;96385.47;;;6.58;100.00
54910;BME280;63189;51.240;9.964;2023-04-12T10:00:09;96382.75;;;6.61;100.00
54910;BME280;63189;51.240;9.964;2023-04-12T10:02:47;96388.25;;;6.74;100.00
54910;BME280;63189;51.240;9.964;2023-04-12T10:05:15;96365.69;;;6.56;100.00
54910;BME280;63189;51.240;9.964;2023-04-12T10:07:41;96378.09;;;6.70;100.00
54910;BME280;63189;51.240;9.964;2023-04-12T10:10:11;96380.50;;;6.74;100.00
54910;BME280;63189;51.240;9.964;2023-04-12T10:12:41;96385.03;;;6.69;100.00
54910;BME280;63189;51.240;9.964;2023-04-12T10:15:09;96377.19;;;6.71;100.00
54910;BME280;63189;51.240;9.964;2023-04-12T10:17:41;96364.03;;;6.75;100.00
54910;BME280;63189;51.240;9.964;2023-04-12T10:20:08;96363.34;;;6.72;100.00
54910;BME280;63189;51.240;9.964;2023-04-12T10:22:34;96354.66;;;6.73;100.00
54910;BME280;63189;51.240;9.964;2023-04-12T10:25:00;96361.66;;;6.71;100.00
54910;BME280;63189;51.240;9.964;2023-04-12T10:27:26;96349.53;;;6.71;100.00
54910;BME280;63189;51.240;9.964;2023-04-12T10:30:30;96352.28;;;6.68;100.00
54910;BME280;63189;51.240;9.964;2023-04-12T10:35:27;96351.28;;;6.71;100.00
54910;BME280;63189;51.240;9.964;2023-04-12T10:38:19;96341.72;;;6.73;100.00
54910;BME280;63189;51.240;9.964;2023-04-12T10:41:18;96341.72;;;6.73;100.00
54910;BME280;63189;51.240;9.964;2023-04-12T10:43:48;96331.22;;;6.76;100.00
54910;BME280;63189;51.240;9.964;2023-04-12T10:49:12;96329.66;;;6.72;100.00
54910;BME280;63189;51.240;9.964;2023-04-12T10:52:09;96331.34;;;6.73;100.00
54910;BME280;63189;51.240;9.964;2023-04-12T10:56:54;96322.59;;;6.75;100.00
54910;BME280;63189;51.240;9.964;2023-04-12T10:59:19;96320.22;;;6.71;100.00
54910;BME280;63189;51.240;9.964;2023-04-12T11:04:28;96325.97;;;6.77;100.00
54910;BME280;63189;51.240;9.964;2023-04-12T11:07:01;96325.19;;;6.75;100.00
54910;BME280;63189;51.240;9.964;2023-04-12T11:09:37;96320.91;;;6.74;100.00
54910;BME280;63189;51.240;9.964;2023-04-12T11:14:59;96309.59;;;6.77;100.00
54910;BME280;63189;51.240;9.964;2023-04-12T11:17:26;96312.97;;;6.79;100.00
54910;BME280;63189;51.240;9.964;2023-04-12T11:20:00;96303.53;;;6.78;100.00
54910;BME280;63189;51.240;9.964;2023-04-12T11:22:29;96302.34;;;6.85;100.00
54910;BME280;63189;51.240;9.964;2023-04-12T11:25:01;96297.16;;;6.85;100.00
54910;BME280;63189;51.240;9.964;2023-04-12T11:27:28;96280.63;;;6.87;100.00
54910;BME280;63189;51.240;9.964;2023-04-12T11:29:55;96282.22;;;6.91;100.00
54910;BME280;63189;51.240;9.964;2023-04-12T11:32:23;96278.72;;;6.92;100.00
54910;BME280;63189;51.240;9.964;2023-04-12T11:34:50;96277.16;;;6.88;100.00
54910;BME280;63189;51.240;9.964;2023-04-12T11:37:17;96281.22;;;6.94;100.00
54910;BME280;63189;51.240;9.964;2023-04-12T11:39:44;96276.19;;;6.91;100.00
54910;BME280;63189;51.240;9.964;2023-04-12T11:42:14;96273.53;;;6.92;100.00
54910;BME280;63189;51.240;9.964;2023-04-12T11:44:41;96278.72;;;6.92;100.00
54910;BME280;63189;51.240;9.964;2023-04-12T11:47:33;96270.78;;;6.95;100.00
54910;BME280;63189;51.240;9.964;2023-04-12T11:49:59;96284.47;;;6.99;100.00
54910;BME280;63189;51.240;9.964;2023-04-12T11:52:29;96272.28;;;7.01;100.00
54910;BME280;63189;51.240;9.964;2023-04-12T11:54:55;96265.16;;;7.06;100.00
54910;BME280;63189;51.240;9.964;2023-04-12T11:57:23;96258.44;;;7.02;100.00
54910;BME280;63189;51.240;9.964;2023-04-12T11:59:49;96261.53;;;7.10;100.00
54910;BME280;63189;51.240;9.964;2023-04-12T12:02:15;96254.22;;;7.18;100.00
54910;BME280;63189;51.240;9.964;2023-04-12T12:04:43;96248.94;;;7.21;100.00
54910;BME280;63189;51.240;9.964;2023-04-12T12:07:11;96245.28;;;7.26;100.00
54910;BME280;63189;51.240;9.964;2023-04-12T12:09:38;96241.09;;;7.23;100.00
54910;BME280;63189;51.240;9.964;2023-04-12T12:12:03;96241.66;;;7.30;100.00
54910;BME280;63189;51.240;9.964;2023-04-12T12:14:33;96235.34;;;7.35;100.00
54910;BME280;63189;51.240;9.964;2023-04-12T12:16:59;96233.41;;;7.40;100.00
54910;BME280;63189;51.240;9.964;2023-04-12T12:19:55;96218.69;;;7.41;100.00
54910;BME280;63189;51.240;9.964;2023-04-12T12:22:21;96226.91;;;7.50;100.00
54910;BME280;63189;51.240;9.964;2023-04-12T12:24:54;96229.47;;;7.50;100.00
54910;BME280;63189;51.240;9.964;2023-04-12T12:27:22;96228.50;;;7.53;100.00
54910;BME280;63189;51.240;9.964;2023-04-12T12:29:49;96233.38;;;7.59;100.00
54910;BME280;63189;51.240;9.964;2023-04-12T12:32:16;96231.69;;;7.58;100.00
54910;BME280;63189;51.240;9.964;2023-04-12T12:34:53;96214.38;;;7.59;100.00
54910;BME280;63189;51.240;9.964;2023-04-12T12:37:20;96221.06;;;7.64;100.00
54910;BME280;63189;51.240;9.964;2023-04-12T12:39:59;96217.41;;;7.68;100.00
54910;BME280;63189;51.240;9.964;2023-04-12T12:42:25;96209.50;;;7.71;100.00
54910;BME280;63189;51.240;9.964;2023-04-12T12:44:50;96200.72;;;7.74;100.00
54910;BME280;63189;51.240;9.964;2023-04-12T12:47:16;96202.59;;;7.70;100.00
54910;BME280;63189;51.240;9.964;2023-04-12T12:49:41;96207.03;;;7.68;100.00
54910;BME280;63189;51.240;9.964;2023-04-12T12:52:07;96210.25;;;7.73;100.00
54910;BME280;63189;51.240;9.964;2023-04-12T12:54:33;96192.94;;;7.74;100.00
54910;BME280;63189;51.240;9.964;2023-04-12T12:57:01;96194.47;;;7.78;100.00
54910;BME280;63189;51.240;9.964;2023-04-12T12:59:28;96193.69;;;7.76;100.00
54910;BME280;63189;51.240;9.964;2023-04-12T13:01:53;96186.75;;;7.76;100.00
54910;BME280;63189;51.240;9.964;2023-04-12T13:04:20;96191.09;;;7.76;100.00
54910;BME280;63189;51.240;9.964;2023-04-12T13:06:45;96185.84;;;7.77;100.00
54910;BME280;63189;51.240;9.964;2023-04-12T13:09:10;96190.03;;;7.80;100.00
54910;BME280;63189;51.240;9.964;2023-04-12T13:11:36;96187.31;;;7.83;100.00
54910;BME280;63189;51.240;9.964;2023-04-12T13:14:01;96186.41;;;7.84;100.00
54910;BME280;63189;51.240;9.964;2023-04-12T13:16:26;96188.84;;;7.87;100.00
54910;BME280;63189;51.240;9.964;2023-04-12T13:18:51;96181.72;;;7.91;100.00
54910;BME280;63189;51.240;9.964;2023-04-12T13:21:17;96173.94;;;7.91;100.00
54910;BME280;63189;51.240;9.964;2023-04-12T13:23:42;96169.47;;;7.94;100.00
54910;BME280;63189;51.240;9.964;2023-04-12T13:26:08;96170.91;;;8.00;100.00
54910;BME280;63189;51.240;9.964;2023-04-12T13:28:34;96164.03;;;7.99;100.00
54910;BME280;63189;51.240;9.964;2023-04-12T13:30:59;96163.03;;;8.01;100.00
54910;BME280;63189;51.240;9.964;2023-04-12T13:33:25;96160.25;;;8.06;100.00
54910;BME280;63189;51.240;9.964;2023-04-12T13:35:51;96157.72;;;8.04;100.00
54910;BME280;63189;51.240;9.964;2023-04-12T13:38:16;96142.84;;;8.08;100.00
54910;BME280;63189;51.240;9.964;2023-04-12T13:40:42;96136.72;;;8.09;100.00
54910;BME280;63189;51.240;9.964;2023-04-12T13:43:07;96143.13;;;8.19;100.00
54910;BME280;63189;51.240;9.964;2023-04-12T13:45:32;96135.44;;;8.18;100.00
54910;BME280;63189;51.240;9.964;2023-04-12T13:47:58;96129.47;;;8.16;100.00